sensor_id;sensor_type;location;lat;lon;timestamp;pressure;altitude;pressure_sealevel;temperature;humidity
47706;BME280;33471;52.104;1.318;2023-02-18T00:00:31;101775.05;;;11.30;62.36
47706;BME280;33471;52.104;1.318;2023-02-18T00:02:59;101769.97;;;11.98;61.48
47706;BME280;33471;52.104;1.318;2023-02-18T00:05:28;101766.59;;;12.81;58.51
47706;BME280;33471;52.104;1.318;2023-02-18T00:07:55;101772.86;;;12.08;60.57
47706;BME280;33471;52.104;1.318;2023-02-18T00:10:22;101761.18;;;11.86;61.92
47706;BME280;33471;52.104;1.318;2023-02-18T00:12:49;101758.66;;;12.28;59.47
47706;BME280;33471;52.104;1.318;2023-02-18T00:15:16;101764.64;;;12.81;58.50
47706;BME280;33471;52.104;1.318;2023-02-18T00:17:43;101760.47;;;12.62;59.07
47706;BME280;33471;52.104;1.318;2023-02-18T00:20:11;101760.78;;;13.04;57.68
47706;BME280;33471;52.104;1.318;2023-02-18T00:22:39;101756.68;;;12.11;60.46
47706;BME280;33471;52.104;1.318;2023-02-18T00:25:06;101750.26;;;13.11;59.12
47706;BME280;33471;52.104;1.318;2023-02-18T00:27:33;101745.99;;;12.46;59.77
47706;BME280;33471;52.104;1.318;2023-02-18T00:30:02;101745.07;;;12.28;59.91
47706;BME280;33471;52.104;1.318;2023-02-18T00:32:29;101751.34;;;13.38;57.43
47706;BME280;33471;52.104;1.318;2023-02-18T00:34:56;101746.24;;;12.06;61.27
47706;BME280;33471;52.104;1.318;2023-02-18T00:37:24;101743.70;;;11.51;62.13
47706;BME280;33471;52.104;1.318;2023-02-18T00:39:51;101742.35;;;11.54;61.59
47706;BME280;33471;52.104;1.318;2023-02-18T00:42:19;101744.80;;;12.30;59.63
47706;BME280;33471;52.104;1.318;2023-02-18T00:44:46;101739.44;;;12.75;58.70
47706;BME280;33471;52.104;1.318;2023-02-18T00:47:13;101734.10;;;12.98;58.47
47706;BME280;33471;52.104;1.318;2023-02-18T00:49:41;101721.76;;;12.22;59.99
47706;BME280;33471;52.104;1.318;2023-02-18T00:52:08;101717.48;;;11.54;61.90
47706;BME280;33471;52.104;1.318;2023-02-18T00:54:35;101709.83;;;11.57;61.95
47706;BME280;33471;52.104;1.318;2023-02-18T00:57:03;101714.52;;;11.55;62.77
47706;BME280;33471;52.104;1.318;2023-02-18T00:59:30;101710.71;;;12.23;61.53
47706;BME280;33471;52.104;1.318;2023-02-18T01:01:58;101710.85;;;12.72;60.07
47706;BME280;33471;52.104;1.318;2023-02-18T01:04:25;101707.88;;;12.15;61.17
47706;BME280;33471;52.104;1.318;2023-02-18T01:06:52;101702.73;;;12.21;60.73
47706;BME280;33471;52.104;1.318;2023-02-18T01:09:19;101700.91;;;11.94;61.08
47706;BME280;33471;52.104;1.318;2023-02-18T01:11:46;101694.48;;;11.60;63.50
47706;BME280;33471;52.104;1.318;2023-02-18T01:14:14;101707.75;;;12.34;61.16
47706;BME280;33471;52.104;1.318;2023-02-18T01:16:41;101692.74;;;11.67;61.55
47706;BME280;33471;52.104;1.318;2023-02-18T01:19:09;101688.10;;;12.07;60.60
47706;BME280;33471;52.104;1.318;2023-02-18T01:21:36;101697.69;;;12.11;61.49
47706;BME280;33471;52.104;1.318;2023-02-18T01:24:04;101691.68;;;11.62;62.74
47706;BME280;33471;52.104;1.318;2023-02-18T01:26:31;101701.47;;;12.22;61.26
47706;BME280;33471;52.104;1.318;2023-02-18T01:28:59;101692.58;;;11.81;62.43
47706;BME280;33471;52.104;1.318;2023-02-18T01:31:26;101693.95;;;11.99;62.64
47706;BME280;33471;52.104;1.318;2023-02-18T01:33:53;101686.77;;;11.98;61.58
47706;BME280;33471;52.104;1.318;2023-02-18T01:36:20;101684.90;;;11.94;60.57
47706;BME280;33471;52.104;1.318;2023-02-18T01:38:47;101686.78;;;11.44;62.64
47706;BME280;33471;52.104;1.318;2023-02-18T01:41:15;101680.84;;;10.80;64.40
47706;BME280;33471;52.104;1.318;2023-02-18T01:43:43;101680.47;;;11.80;61.66
47706;BME280;33471;52.104;1.318;2023-02-18T01:46:17;101675.27;;;12.07;60.97
47706;BME280;33471;52.104;1.318;2023-02-18T01:48:48;101669.49;;;11.39;63.03
47706;BME280;33471;52.104;1.318;2023-02-18T01:51:19;101669.37;;;11.37;63.87
47706;BME280;33471;52.104;1.318;2023-02-18T01:53:53;101664.59;;;10.96;65.11
47706;BME280;33471;52.104;1.318;2023-02-18T01:56:27;101670.09;;;11.67;62.03
47706;BME280;33471;52.104;1.318;2023-02-18T01:58:57;101655.44;;;12.28;60.58
47706;BME280;33471;52.104;1.318;2023-02-18T02:01:26;101651.61;;;11.88;62.58
47706;BME280;33471;52.104;1.318;2023-02-18T02:03:53;101652.82;;;11.98;62.49
47706;BME280;33471;52.104;1.318;2023-02-18T02:06:22;101644.78;;;11.45;63.38
47706;BME280;33471;52.104;1.318;2023-02-18T02:08:52;101647.70;;;10.94;64.39
47706;BME280;33471;52.104;1.318;2023-02-18T02:11:33;101649.56;;;10.78;63.33
47706;BME280;33471;52.104;1.318;2023-02-18T02:14:12;101644.09;;;11.64;61.52
47706;BME280;33471;52.104;1.318;2023-02-18T02:16:47;101638.48;;;10.89;63.40
47706;BME280;33471;52.104;1.318;2023-02-18T02:19:44;101624.99;;;10.79;63.15
47706;BME280;33471;52.104;1.318;2023-02-18T02:22:47;101623.19;;;11.85;59.86
47706;BME280;33471;52.104;1.318;2023-02-18T02:25:35;101612.50;;;11.33;61.18
47706;BME280;33471;52.104;1.318;2023-02-18T02:29:00;101614.08;;;11.36;61.00
47706;BME280;33471;52.104;1.318;2023-02-18T02:31:46;101616.62;;;11.12;60.47
47706;BME280;33471;52.104;1.318;2023-02-18T02:34:32;101599.41;;;10.42;63.00
47706;BME280;33471;52.104;1.318;2023-02-18T02:37:06;101597.27;;;10.28;62.07
47706;BME280;33471;52.104;1.318;2023-02-18T02:39:40;101601.46;;;10.55;61.31
47706;BME280;33471;52.104;1.318;2023-02-18T02:42:25;101598.97;;;10.64;59.98
47706;BME280;33471;52.104;1.318;2023-02-18T02:45:03;101595.58;;;10.60;60.83
47706;BME280;33471;52.104;1.318;2023-02-18T02:47:40;101601.82;;;10.91;58.13
47706;BME280;33471;52.104;1.318;2023-02-18T02:50:13;101596.69;;;11.32;56.84
47706;BME280;33471;52.104;1.318;2023-02-18T02:52:48;101595.38;;;11.33;57.02
47706;BME280;33471;52.104;1.318;2023-02-18T02:55:17;101580.35;;;10.74;58.58
47706;BME280;33471;52.104;1.318;2023-02-18T02:57:48;101578.23;;;10.46;59.49
47706;BME280;33471;52.104;1.318;2023-02-18T03:00:18;101570.26;;;11.08;57.96
47706;BME280;33471;52.104;1.318;2023-02-18T03:02:58;101579.04;;;11.29;57.73
47706;BME280;33471;52.104;1.318;2023-02-18T03:05:36;101577.53;;;10.76;58.29
47706;BME280;33471;52.104;1.318;2023-02-18T03:08:18;101579.84;;;10.02;58.66
47706;BME280;33471;52.104;1.318;2023-02-18T03:10:55;101577.87;;;10.61;58.42
47706;BME280;33471;52.104;1.318;2023-02-18T03:13:37;101573.59;;;10.58;58.82
47706;BME280;33471;52.104;1.318;2023-02-18T03:16:15;101576.80;;;11.04;56.68
47706;BME280;33471;52.104;1.318;2023-02-18T03:18:49;101576.10;;;10.93;57.76
47706;BME280;33471;52.104;1.318;2023-02-18T03:21:22;101588.82;;;10.24;59.98
47706;BME280;33471;52.104;1.318;2023-02-18T03:23:54;101579.79;;;10.04;60.70
47706;BME280;33471;52.104;1.318;2023-02-18T03:26:22;101581.98;;;10.34;59.64
47706;BME280;33471;52.104;1.318;2023-02-18T03:28:52;101565.59;;;10.90;59.45
47706;BME280;33471;52.104;1.318;2023-02-18T03:31:24;101559.51;;;9.85;61.23
47706;BME280;33471;52.104;1.318;2023-02-18T03:33:58;101556.64;;;9.94;60.23
47706;BME280;33471;52.104;1.318;2023-02-18T03:36:27;101543.33;;;10.21;60.10
47706;BME280;33471;52.104;1.318;2023-02-18T03:38:59;101537.68;;;9.51;60.97
47706;BME280;33471;52.104;1.318;2023-02-18T03:41:27;101535.91;;;10.21;59.79
47706;BME280;33471;52.104;1.318;2023-02-18T03:43:58;101539.53;;;10.23;59.64
47706;BME280;33471;52.104;1.318;2023-02-18T03:46:27;101544.75;;;10.03;60.13
47706;BME280;33471;52.104;1.318;2023-02-18T03:48:55;101548.22;;;9.91;60.47
47706;BME280;33471;52.104;1.318;2023-02-18T03:51:22;101543.79;;;9.79;60.07
47706;BME280;33471;52.104;1.318;2023-02-18T03:53:50;101545.23;;;10.31;58.56
47706;BME280;33471;52.104;1.318;2023-02-18T03:56:17;101538.41;;;10.15;58.69
47706;BME280;33471;52.104;1.318;2023-02-18T03:58:45;101538.59;;;10.76;56.83
47706;BME280;33471;52.104;1.318;2023-02-18T04:01:12;101536.16;;;10.08;58.11
47706;BME280;33471;52.104;1.318;2023-02-18T04:03:39;101536.86;;;10.42;56.95
47706;BME280;33471;52.104;1.318;2023-02-18T04:06:07;101535.49;;;10.72;56.07
47706;BME280;33471;52.104;1.318;2023-02-18T04:08:35;101528.42;;;11.13;55.05
47706;BME280;33471;52.104;1.318;2023-02-18T04:11:02;101524.79;;;10.47;57.17
47706;BME280;33471;52.104;1.318;2023-02-18T04:13:30;101517.39;;;10.61;55.63
47706;BME280;33471;52.104;1.318;2023-02-18T04:15:57;101515.89;;;10.05;56.70
47706;BME280;33471;52.104;1.318;2023-02-18T04:18:24;101512.38;;;11.17;55.31
47706;BME280;33471;52.104;1.318;2023-02-18T04:20:51;101497.77;;;10.07;57.47
47706;BME280;33471;52.104;1.318;2023-02-18T04:23:18;101494.24;;;10.21;56.78
47706;BME280;33471;52.104;1.318;2023-02-18T04:25:45;101490.49;;;10.51;56.51
47706;BME280;33471;52.104;1.318;2023-02-18T04:28:13;101483.72;;;10.57;56.84
47706;BME280;33471;52.104;1.318;2023-02-18T04:30:41;101486.78;;;10.52;56.98
47706;BME280;33471;52.104;1.318;2023-02-18T04:33:08;101488.86;;;9.45;58.43
47706;BME280;33471;52.104;1.318;2023-02-18T04:35:35;101490.76;;;9.47;58.85
47706;BME280;33471;52.104;1.318;2023-02-18T04:38:03;101485.37;;;9.62;59.31
47706;BME280;33471;52.104;1.318;2023-02-18T04:40:30;101478.34;;;10.20;57.06
47706;BME280;33471;52.104;1.318;2023-02-18T04:42:58;101477.49;;;10.43;57.08
47706;BME280;33471;52.104;1.318;2023-02-18T04:45:26;101482.12;;;10.42;57.07
47706;BME280;33471;52.104;1.318;2023-02-18T04:47:54;101478.12;;;9.91;57.81
47706;BME280;33471;52.104;1.318;2023-02-18T04:50:21;101479.30;;;9.66;57.55
47706;BME280;33471;52.104;1.318;2023-02-18T04:52:49;101485.44;;;10.86;55.68
47706;BME280;33471;52.104;1.318;2023-02-18T04:55:17;101482.96;;;10.26;55.57
47706;BME280;33471;52.104;1.318;2023-02-18T04:57:44;101468.39;;;10.00;56.24
47706;BME280;33471;52.104;1.318;2023-02-18T05:00:14;101478.06;;;9.84;57.54
47706;BME280;33471;52.104;1.318;2023-02-18T05:02:43;101493.13;;;10.76;54.32
47706;BME280;33471;52.104;1.318;2023-02-18T05:05:11;101484.90;;;10.84;54.39
47706;BME280;33471;52.104;1.318;2023-02-18T05:07:38;101480.60;;;10.87;53.74
47706;BME280;33471;52.104;1.318;2023-02-18T05:10:07;101474.00;;;10.77;53.23
47706;BME280;33471;52.104;1.318;2023-02-18T05:12:34;101465.52;;;9.56;56.93
47706;BME280;33471;52.104;1.318;2023-02-18T05:15:03;101457.31;;;9.27;58.36
47706;BME280;33471;52.104;1.318;2023-02-18T05:17:30;101457.92;;;9.36;58.27
47706;BME280;33471;52.104;1.318;2023-02-18T05:19:57;101452.89;;;9.85;56.90
47706;BME280;33471;52.104;1.318;2023-02-18T05:22:25;101454.42;;;9.71;56.23
47706;BME280;33471;52.104;1.318;2023-02-18T05:24:52;101454.32;;;9.71;57.27
47706;BME280;33471;52.104;1.318;2023-02-18T05:27:19;101444.23;;;9.58;57.35
47706;BME280;33471;52.104;1.318;2023-02-18T05:29:46;101439.76;;;9.28;57.86
47706;BME280;33471;52.104;1.318;2023-02-18T05:32:14;101443.73;;;10.00;55.18
47706;BME280;33471;52.104;1.318;2023-02-18T05:34:41;101434.35;;;9.94;56.12
47706;BME280;33471;52.104;1.318;2023-02-18T05:37:08;101445.64;;;10.17;55.19
47706;BME280;33471;52.104;1.318;2023-02-18T05:39:36;101443.26;;;9.67;55.59
47706;BME280;33471;52.104;1.318;2023-02-18T05:42:03;101437.26;;;9.86;55.49
47706;BME280;33471;52.104;1.318;2023-02-18T05:44:30;101434.23;;;9.74;55.08
47706;BME280;33471;52.104;1.318;2023-02-18T05:46:57;101437.25;;;9.93;55.67
47706;BME280;33471;52.104;1.318;2023-02-18T05:49:26;101434.47;;;9.08;58.19
47706;BME280;33471;52.104;1.318;2023-02-18T05:51:53;101436.42;;;8.83;57.15
47706;BME280;33471;52.104;1.318;2023-02-18T05:54:20;101431.80;;;9.68;54.82
47706;BME280;33471;52.104;1.318;2023-02-18T05:56:47;101431.11;;;9.44;54.58
47706;BME280;33471;52.104;1.318;2023-02-18T05:59:15;101430.02;;;9.66;54.72
47706;BME280;33471;52.104;1.318;2023-02-18T06:01:42;101423.83;;;9.82;54.73
47706;BME280;33471;52.104;1.318;2023-02-18T06:04:10;101431.85;;;9.35;55.38
47706;BME280;33471;52.104;1.318;2023-02-18T06:06:38;101435.14;;;9.83;54.70
47706;BME280;33471;52.104;1.318;2023-02-18T06:09:06;101434.54;;;10.22;53.65
47706;BME280;33471;52.104;1.318;2023-02-18T06:11:34;101443.94;;;10.36;52.90
47706;BME280;33471;52.104;1.318;2023-02-18T06:14:02;101431.43;;;10.47;52.46
47706;BME280;33471;52.104;1.318;2023-02-18T06:16:31;101433.44;;;9.55;55.08
47706;BME280;33471;52.104;1.318;2023-02-18T06:18:59;101426.61;;;10.06;53.88
47706;BME280;33471;52.104;1.318;2023-02-18T06:21:25;101424.06;;;9.28;56.71
47706;BME280;33471;52.104;1.318;2023-02-18T06:23:52;101422.46;;;10.17;55.12
47706;BME280;33471;52.104;1.318;2023-02-18T06:26:20;101424.47;;;9.71;54.82
47706;BME280;33471;52.104;1.318;2023-02-18T06:28:47;101421.35;;;9.69;56.96
47706;BME280;33471;52.104;1.318;2023-02-18T06:31:14;101430.31;;;9.52;56.58
47706;BME280;33471;52.104;1.318;2023-02-18T06:33:42;101427.63;;;9.18;57.40
47706;BME280;33471;52.104;1.318;2023-02-18T06:36:10;101423.41;;;9.45;57.09
47706;BME280;33471;52.104;1.318;2023-02-18T06:38:39;101419.84;;;9.82;55.66
47706;BME280;33471;52.104;1.318;2023-02-18T06:41:07;101414.41;;;9.64;56.04
47706;BME280;33471;52.104;1.318;2023-02-18T06:43:35;101420.91;;;9.63;56.90
47706;BME280;33471;52.104;1.318;2023-02-18T06:46:03;101426.66;;;10.09;56.01
47706;BME280;33471;52.104;1.318;2023-02-18T06:48:31;101429.29;;;9.48;57.44
47706;BME280;33471;52.104;1.318;2023-02-18T06:50:59;101429.41;;;9.27;56.61
47706;BME280;33471;52.104;1.318;2023-02-18T06:53:26;101436.31;;;10.15;56.26
47706;BME280;33471;52.104;1.318;2023-02-18T06:55:53;101428.51;;;9.73;56.93
47706;BME280;33471;52.104;1.318;2023-02-18T06:58:20;101444.69;;;9.71;56.24
47706;BME280;33471;52.104;1.318;2023-02-18T07:00:48;101435.29;;;10.32;54.87
47706;BME280;33471;52.104;1.318;2023-02-18T07:03:15;101425.19;;;10.06;55.30
47706;BME280;33471;52.104;1.318;2023-02-18T07:05:42;101421.00;;;10.59;55.23
47706;BME280;33471;52.104;1.318;2023-02-18T07:08:09;101420.84;;;9.52;56.38
47706;BME280;33471;52.104;1.318;2023-02-18T07:10:36;101414.11;;;9.33;58.95
47706;BME280;33471;52.104;1.318;2023-02-18T07:13:04;101423.97;;;9.48;58.56
47706;BME280;33471;52.104;1.318;2023-02-18T07:15:32;101427.36;;;9.77;56.73
47706;BME280;33471;52.104;1.318;2023-02-18T07:18:00;101442.24;;;9.46;58.33
47706;BME280;33471;52.104;1.318;2023-02-18T07:20:28;101441.70;;;9.37;57.73
47706;BME280;33471;52.104;1.318;2023-02-18T07:22:55;101442.26;;;10.09;57.11
47706;BME280;33471;52.104;1.318;2023-02-18T07:25:22;101441.10;;;9.08;60.80
47706;BME280;33471;52.104;1.318;2023-02-18T07:27:49;101435.57;;;9.34;59.31
47706;BME280;33471;52.104;1.318;2023-02-18T07:30:17;101449.11;;;9.57;58.11
47706;BME280;33471;52.104;1.318;2023-02-18T07:32:44;101449.55;;;9.97;56.89
47706;BME280;33471;52.104;1.318;2023-02-18T07:35:13;101445.06;;;9.80;57.53
47706;BME280;33471;52.104;1.318;2023-02-18T07:37:44;101447.36;;;10.04;58.34
47706;BME280;33471;52.104;1.318;2023-02-18T07:40:14;101449.06;;;9.79;59.07
47706;BME280;33471;52.104;1.318;2023-02-18T07:42:41;101445.00;;;8.98;60.35
47706;BME280;33471;52.104;1.318;2023-02-18T07:45:10;101450.96;;;9.16;59.92
47706;BME280;33471;52.104;1.318;2023-02-18T07:47:37;101453.56;;;9.58;58.64
47706;BME280;33471;52.104;1.318;2023-02-18T07:50:06;101468.43;;;9.70;58.90
47706;BME280;33471;52.104;1.318;2023-02-18T07:52:34;101466.91;;;9.77;58.68
47706;BME280;33471;52.104;1.318;2023-02-18T07:55:02;101471.38;;;9.47;59.59
47706;BME280;33471;52.104;1.318;2023-02-18T07:57:29;101470.39;;;9.16;60.58
47706;BME280;33471;52.104;1.318;2023-02-18T07:59:56;101465.42;;;9.58;59.68
47706;BME280;33471;52.104;1.318;2023-02-18T08:02:24;101473.80;;;10.31;58.23
47706;BME280;33471;52.104;1.318;2023-02-18T08:04:51;101489.62;;;10.26;58.84
47706;BME280;33471;52.104;1.318;2023-02-18T08:07:20;101492.48;;;10.22;58.50
47706;BME280;33471;52.104;1.318;2023-02-18T08:09:49;101491.50;;;10.23;58.00
47706;BME280;33471;52.104;1.318;2023-02-18T08:12:16;101500.91;;;10.62;57.21
47706;BME280;33471;52.104;1.318;2023-02-18T08:14:43;101496.38;;;9.74;60.20
47706;BME280;33471;52.104;1.318;2023-02-18T08:17:10;101503.33;;;10.40;58.36
47706;BME280;33471;52.104;1.318;2023-02-18T08:19:37;101504.08;;;10.23;59.57
47706;BME280;33471;52.104;1.318;2023-02-18T08:22:05;101503.42;;;10.61;58.78
47706;BME280;33471;52.104;1.318;2023-02-18T08:24:32;101510.05;;;10.42;59.09
47706;BME280;33471;52.104;1.318;2023-02-18T08:26:59;101515.87;;;10.56;57.78
47706;BME280;33471;52.104;1.318;2023-02-18T08:29:27;101516.95;;;10.32;59.59
47706;BME280;33471;52.104;1.318;2023-02-18T08:31:54;101517.42;;;10.70;58.02
47706;BME280;33471;52.104;1.318;2023-02-18T08:34:22;101522.28;;;9.98;59.93
47706;BME280;33471;52.104;1.318;2023-02-18T08:36:48;101525.85;;;10.02;60.29
47706;BME280;33471;52.104;1.318;2023-02-18T08:39:16;101522.61;;;10.29;59.62
47706;BME280;33471;52.104;1.318;2023-02-18T08:41:43;101519.82;;;10.41;60.46
47706;BME280;33471;52.104;1.318;2023-02-18T08:44:10;101524.73;;;10.34;59.42
47706;BME280;33471;52.104;1.318;2023-02-18T08:46:38;101517.81;;;10.55;59.22
47706;BME280;33471;52.104;1.318;2023-02-18T08:49:05;101521.63;;;11.01;58.57
47706;BME280;33471;52.104;1.318;2023-02-18T08:51:34;101519.02;;;11.07;58.78
47706;BME280;33471;52.104;1.318;2023-02-18T08:54:01;101522.37;;;11.19;58.68
47706;BME280;33471;52.104;1.318;2023-02-18T08:56:29;101524.60;;;10.77;58.84
47706;BME280;33471;52.104;1.318;2023-02-18T08:58:57;101522.63;;;10.84;58.81
47706;BME280;33471;52.104;1.318;2023-02-18T09:01:25;101521.40;;;10.66;58.69
47706;BME280;33471;52.104;1.318;2023-02-18T09:03:52;101520.68;;;11.17;58.29
47706;BME280;33471;52.104;1.318;2023-02-18T09:06:19;101527.67;;;10.63;58.99
47706;BME280;33471;52.104;1.318;2023-02-18T09:08:47;101533.43;;;10.69;59.37
47706;BME280;33471;52.104;1.318;2023-02-18T09:11:14;101536.73;;;11.14;58.10
47706;BME280;33471;52.104;1.318;2023-02-18T09:13:42;101537.47;;;11.61;56.47
47706;BME280;33471;52.104;1.318;2023-02-18T09:16:11;101538.43;;;11.10;58.27
47706;BME280;33471;52.104;1.318;2023-02-18T09:18:39;101539.13;;;12.19;55.63
47706;BME280;33471;52.104;1.318;2023-02-18T09:21:08;101544.79;;;12.22;55.15
47706;BME280;33471;52.104;1.318;2023-02-18T09:23:35;101546.91;;;11.70;57.10
47706;BME280;33471;52.104;1.318;2023-02-18T09:26:05;101543.21;;;11.77;56.79
47706;BME280;33471;52.104;1.318;2023-02-18T09:28:33;101549.42;;;12.10;55.98
47706;BME280;33471;52.104;1.318;2023-02-18T09:31:04;101556.90;;;11.82;55.56
47706;BME280;33471;52.104;1.318;2023-02-18T09:33:34;101567.35;;;11.72;55.76
47706;BME280;33471;52.104;1.318;2023-02-18T09:36:02;101570.69;;;12.24;55.38
47706;BME280;33471;52.104;1.318;2023-02-18T09:38:29;101571.26;;;11.45;56.83
47706;BME280;33471;52.104;1.318;2023-02-18T09:40:58;101570.04;;;12.07;55.16
47706;BME280;33471;52.104;1.318;2023-02-18T09:43:30;101573.24;;;11.83;56.06
47706;BME280;33471;52.104;1.318;2023-02-18T09:45:58;101586.82;;;11.70;56.38
47706;BME280;33471;52.104;1.318;2023-02-18T09:48:28;101571.75;;;12.08;56.32
47706;BME280;33471;52.104;1.318;2023-02-18T09:50:58;101571.16;;;12.05;55.77
47706;BME280;33471;52.104;1.318;2023-02-18T09:53:26;101565.94;;;12.19;55.18
47706;BME280;33471;52.104;1.318;2023-02-18T09:55:55;101577.62;;;11.67;57.06
47706;BME280;33471;52.104;1.318;2023-02-18T09:58:25;101583.38;;;12.00;56.78
47706;BME280;33471;52.104;1.318;2023-02-18T10:00:58;101589.53;;;11.71;56.72
47706;BME280;33471;52.104;1.318;2023-02-18T10:03:29;101592.11;;;11.28;58.30
47706;BME280;33471;52.104;1.318;2023-02-18T10:05:59;101598.94;;;11.72;57.67
47706;BME280;33471;52.104;1.318;2023-02-18T10:08:32;101597.26;;;11.24;58.67
47706;BME280;33471;52.104;1.318;2023-02-18T10:11:01;101591.78;;;11.48;57.90
47706;BME280;33471;52.104;1.318;2023-02-18T10:13:31;101590.49;;;11.66;58.14
47706;BME280;33471;52.104;1.318;2023-02-18T10:16:00;101600.78;;;11.96;57.19
47706;BME280;33471;52.104;1.318;2023-02-18T10:18:30;101592.49;;;11.02;59.63
47706;BME280;33471;52.104;1.318;2023-02-18T10:21:04;101594.64;;;11.86;57.34
47706;BME280;33471;52.104;1.318;2023-02-18T10:23:35;101600.58;;;11.75;57.11
47706;BME280;33471;52.104;1.318;2023-02-18T10:26:05;101604.74;;;10.92;59.44
47706;BME280;33471;52.104;1.318;2023-02-18T10:28:34;101608.52;;;11.36;58.07
47706;BME280;33471;52.104;1.318;2023-02-18T10:31:05;101606.91;;;11.45;57.48
47706;BME280;33471;52.104;1.318;2023-02-18T10:33:38;101615.68;;;11.84;57.90
47706;BME280;33471;52.104;1.318;2023-02-18T10:36:21;101613.79;;;11.93;56.18
47706;BME280;33471;52.104;1.318;2023-02-18T10:39:04;101610.84;;;12.79;54.45
47706;BME280;33471;52.104;1.318;2023-02-18T10:41:42;101616.18;;;12.27;55.28
47706;BME280;33471;52.104;1.318;2023-02-18T10:44:16;101611.45;;;12.40;55.06
47706;BME280;33471;52.104;1.318;2023-02-18T10:46:54;101611.52;;;12.21;55.12
47706;BME280;33471;52.104;1.318;2023-02-18T10:49:37;101614.09;;;11.33;58.12
47706;BME280;33471;52.104;1.318;2023-02-18T10:52:14;101614.10;;;11.71;57.93
47706;BME280;33471;52.104;1.318;2023-02-18T10:54:52;101610.77;;;13.04;54.15
47706;BME280;33471;52.104;1.318;2023-02-18T10:57:24;101620.31;;;11.93;57.12
47706;BME280;33471;52.104;1.318;2023-02-18T10:59:57;101631.16;;;11.73;58.08
47706;BME280;33471;52.104;1.318;2023-02-18T11:02:26;101626.59;;;12.02;56.97
47706;BME280;33471;52.104;1.318;2023-02-18T11:04:54;101624.19;;;12.33;55.23
47706;BME280;33471;52.104;1.318;2023-02-18T11:07:29;101617.78;;;13.14;53.05
47706;BME280;33471;52.104;1.318;2023-02-18T11:09:59;101613.61;;;12.88;53.69
47706;BME280;33471;52.104;1.318;2023-02-18T11:12:31;101606.63;;;12.88;54.13
47706;BME280;33471;52.104;1.318;2023-02-18T11:15:16;101604.17;;;13.01;54.60
47706;BME280;33471;52.104;1.318;2023-02-18T11:17:46;101611.37;;;11.72;57.55
47706;BME280;33471;52.104;1.318;2023-02-18T11:20:25;101612.69;;;11.98;57.56
47706;BME280;33471;52.104;1.318;2023-02-18T11:22:57;101611.39;;;12.19;56.35
47706;BME280;33471;52.104;1.318;2023-02-18T11:25:26;101605.31;;;12.72;54.92
47706;BME280;33471;52.104;1.318;2023-02-18T11:27:56;101614.92;;;12.68;54.95
47706;BME280;33471;52.104;1.318;2023-02-18T11:30:29;101606.70;;;12.49;56.34
47706;BME280;33471;52.104;1.318;2023-02-18T11:32:59;101607.48;;;12.59;55.37
47706;BME280;33471;52.104;1.318;2023-02-18T11:35:29;101609.70;;;12.87;55.62
47706;BME280;33471;52.104;1.318;2023-02-18T11:37:59;101608.79;;;12.41;56.60
47706;BME280;33471;52.104;1.318;2023-02-18T11:40:30;101614.98;;;12.68;55.97
47706;BME280;33471;52.104;1.318;2023-02-18T11:43:04;101616.45;;;12.45;55.56
47706;BME280;33471;52.104;1.318;2023-02-18T11:45:33;101618.05;;;12.78;55.06
47706;BME280;33471;52.104;1.318;2023-02-18T11:48:05;101621.86;;;12.80;55.81
47706;BME280;33471;52.104;1.318;2023-02-18T11:50:33;101602.11;;;13.28;53.67
47706;BME280;33471;52.104;1.318;2023-02-18T11:53:26;101599.03;;;13.61;51.84
47706;BME280;33471;52.104;1.318;2023-02-18T11:55:54;101596.81;;;12.89;54.52
47706;BME280;33471;52.104;1.318;2023-02-18T11:58:22;101591.38;;;14.40;51.14
47706;BME280;33471;52.104;1.318;2023-02-18T12:00:50;101588.97;;;14.40;50.63
47706;BME280;33471;52.104;1.318;2023-02-18T12:03:26;101584.50;;;13.56;51.68
47706;BME280;33471;52.104;1.318;2023-02-18T12:05:59;101586.59;;;13.37;53.07
47706;BME280;33471;52.104;1.318;2023-02-18T12:08:31;101581.33;;;13.63;52.08
47706;BME280;33471;52.104;1.318;2023-02-18T12:11:04;101588.82;;;14.88;50.04
47706;BME280;33471;52.104;1.318;2023-02-18T12:13:37;101589.07;;;14.34;49.83
47706;BME280;33471;52.104;1.318;2023-02-18T12:16:13;101594.46;;;14.33;50.41
47706;BME280;33471;52.104;1.318;2023-02-18T12:18:55;101598.11;;;13.94;51.57
47706;BME280;33471;52.104;1.318;2023-02-18T12:21:33;101597.34;;;13.51;53.11
47706;BME280;33471;52.104;1.318;2023-02-18T12:24:12;101592.78;;;13.47;53.17
47706;BME280;33471;52.104;1.318;2023-02-18T12:26:51;101575.91;;;14.24;51.19
47706;BME280;33471;52.104;1.318;2023-02-18T12:29:34;101573.44;;;14.16;51.46
47706;BME280;33471;52.104;1.318;2023-02-18T12:32:15;101572.74;;;13.78;52.48
47706;BME280;33471;52.104;1.318;2023-02-18T12:34:56;101572.26;;;14.46;51.72
47706;BME280;33471;52.104;1.318;2023-02-18T12:37:41;101567.19;;;13.45;53.79
47706;BME280;33471;52.104;1.318;2023-02-18T12:40:29;101582.21;;;12.89;54.31
47706;BME280;33471;52.104;1.318;2023-02-18T12:43:04;101580.01;;;13.51;53.81
47706;BME280;33471;52.104;1.318;2023-02-18T12:45:50;101580.30;;;12.46;55.64
47706;BME280;33471;52.104;1.318;2023-02-18T12:48:35;101585.67;;;13.71;52.13
47706;BME280;33471;52.104;1.318;2023-02-18T12:51:18;101583.69;;;14.83;50.29
47706;BME280;33471;52.104;1.318;2023-02-18T12:54:00;101588.87;;;13.16;53.38
47706;BME280;33471;52.104;1.318;2023-02-18T12:56:51;101575.97;;;13.95;51.50
47706;BME280;33471;52.104;1.318;2023-02-18T12:59:42;101568.20;;;14.64;49.07
47706;BME280;33471;52.104;1.318;2023-02-18T13:02:27;101574.51;;;14.21;51.68
47706;BME280;33471;52.104;1.318;2023-02-18T13:05:06;101572.80;;;14.64;50.75
47706;BME280;33471;52.104;1.318;2023-02-18T13:07:52;101573.09;;;13.67;51.82
47706;BME280;33471;52.104;1.318;2023-02-18T13:10:51;101571.90;;;13.57;52.72